Time;durP1;ratioP1;P1;durP2;ratioP2;P2;SDS_P1;SDS_P2;PMS_P1;PMS_P2;Temp;Humidity;BMP_temperature;BMP_pressure;BME280_temperature;BME280_humidity;BME280_pressure;Samples;Min_cycle;Max_cycle;Signal;HPM_P1;HPM_P2
2022/05/27 00:01:46;;;;;;;0.03;0.03;;;;;;;;;;5016670;28;20033;-78
2022/05/27 00:04:19;;;;;;;0.35;0.35;;;;;;;;;;5034990;28;20026;-78
2022/05/27 00:06:44;;;;;;;0.30;0.30;;;;;;;;;;5030787;28;20044;-77
2022/05/27 00:09:09;;;;;;;0.10;0.10;;;;;;;;;;5016585;28;20029;-77
2022/05/27 00:11:37;;;;;;;0.10;0.10;;;;;;;;;;5016887;28;20044;-76
2022/05/27 00:14:02;;;;;;;0.15;0.15;;;;;;;;;;5015879;28;20061;-76
2022/05/27 00:16:30;;;;;;;0.38;0.38;;;;;;;;;;5016947;28;20049;-78
2022/05/27 00:18:57;;;;;;;0.10;0.10;;;;;;;;;;5016704;28;20021;-77
2022/05/27 00:21:22;;;;;;;0.17;0.10;;;;;;;;;;5016486;28;20037;-76
2022/05/27 00:23:48;;;;;;;0.73;0.60;;;;;;;;;;5016581;28;20036;-77
2022/05/27 00:26:13;;;;;;;0.43;0.43;;;;;;;;;;5016466;28;20057;-78
2022/05/27 00:28:41;;;;;;;0.40;0.40;;;;;;;;;;5015509;28;20045;-77
2022/05/27 00:31:06;;;;;;;0.30;0.28;;;;;;;;;;5016507;28;20029;-77
2022/05/27 00:33:33;;;;;;;0.25;0.25;;;;;;;;;;5037483;28;20112;-78
2022/05/27 00:36:01;;;;;;;0.45;0.45;;;;;;;;;;5015689;28;20029;-79
2022/05/27 00:38:26;;;;;;;3.85;0.40;;;;;;;;;;5015261;28;20092;-78
2022/05/27 00:40:55;;;;;;;0.30;0.30;;;;;;;;;;5015325;28;20114;-78
2022/05/27 00:43:23;;;;;;;0.28;0.28;;;;;;;;;;5014628;28;20402;-79
2022/05/27 00:46:03;;;;;;;0.20;0.20;;;;;;;;;;5012466;28;20029;-80
2022/05/27 00:48:31;;;;;;;0.38;0.30;;;;;;;;;;5028018;28;20025;-78
2022/05/27 00:51:01;;;;;;;0.38;0.35;;;;;;;;;;5013635;28;20032;-77
2022/05/27 00:53:43;;;;;;;0.32;0.30;;;;;;;;;;5014882;28;20052;-77
2022/05/27 00:56:13;;;;;;;1.65;0.82;;;;;;;;;;5015948;28;20034;-78
2022/05/27 00:58:47;;;;;;;0.25;0.25;;;;;;;;;;5013044;28;20045;-77
2022/05/27 01:01:14;;;;;;;0.03;0.03;;;;;;;;;;5009706;28;20348;-77
2022/05/27 01:03:39;;;;;;;0.28;0.28;;;;;;;;;;5015220;28;20026;-77
2022/05/27 01:06:07;;;;;;;0.10;0.10;;;;;;;;;;4998645;28;20414;-78
2022/05/27 01:08:32;;;;;;;0.15;0.15;;;;;;;;;;5014216;28;20065;-77
2022/05/27 01:11:13;;;;;;;0.50;0.50;;;;;;;;;;5014052;28;20065;-77
2022/05/27 01:13:46;;;;;;;0.60;0.60;;;;;;;;;;5015059;28;20101;-78
2022/05/27 01:16:32;;;;;;;0.00;0.00;;;;;;;;;;5013753;28;20033;-78
2022/05/27 01:22:43;;;;;;;0.43;0.43;;;;;;;;;;5012552;28;20053;-78
2022/05/27 01:25:50;;;;;;;0.30;0.30;;;;;;;;;;5014722;28;20026;-77
2022/05/27 01:28:57;;;;;;;1.08;0.90;;;;;;;;;;5013629;28;20025;-78
2022/05/27 01:31:40;;;;;;;0.10;0.10;;;;;;;;;;5015226;28;20038;-78
2022/05/27 01:34:23;;;;;;;0.20;0.20;;;;;;;;;;5012405;28;20061;-78
2022/05/27 01:37:06;;;;;;;0.20;0.20;;;;;;;;;;5014522;28;20112;-78
2022/05/27 01:39:49;;;;;;;0.65;0.65;;;;;;;;;;5015277;28;20054;-78
2022/05/27 01:42:24;;;;;;;0.55;0.50;;;;;;;;;;5014313;28;20061;-78
2022/05/27 01:45:09;;;;;;;0.32;0.30;;;;;;;;;;5014022;28;20026;-78
2022/05/27 01:47:42;;;;;;;1.95;0.95;;;;;;;;;;4997730;28;20076;-78
2022/05/27 01:50:19;;;;;;;0.55;0.55;;;;;;;;;;5015072;28;20040;-78
2022/05/27 01:52:53;;;;;;;0.40;0.40;;;;;;;;;;5014006;28;20030;-77
2022/05/27 01:55:29;;;;;;;0.35;0.35;;;;;;;;;;5015040;28;20026;-78
2022/05/27 01:57:59;;;;;;;0.30;0.30;;;;;;;;;;5012962;28;20175;-78
2022/05/27 02:00:28;;;;;;;0.10;0.10;;;;;;;;;;5014253;28;20026;-78
2022/05/27 02:02:59;;;;;;;0.22;0.22;;;;;;;;;;5013768;28;20030;-78
2022/05/27 02:05:47;;;;;;;0.30;0.30;;;;;;;;;;5013925;28;20037;-77
2022/05/27 02:08:58;;;;;;;0.93;0.75;;;;;;;;;;5013094;28;20034;-78
2022/05/27 02:11:24;;;;;;;0.35;0.30;;;;;;;;;;5004229;28;20096;-78
2022/05/27 02:14:06;;;;;;;0.30;0.30;;;;;;;;;;5013336;28;20022;-78
2022/05/27 02:16:41;;;;;;;0.73;0.57;;;;;;;;;;5013916;28;20033;-78
2022/05/27 02:19:23;;;;;;;0.10;0.10;;;;;;;;;;5009349;28;20040;-78
2022/05/27 02:21:54;;;;;;;0.45;0.43;;;;;;;;;;5027546;28;20022;-78
2022/05/27 02:24:36;;;;;;;1.30;0.95;;;;;;;;;;5013707;28;20026;-78
2022/05/27 02:27:09;;;;;;;0.32;0.30;;;;;;;;;;5012373;28;20103;-78
2022/05/27 02:29:34;;;;;;;0.32;0.32;;;;;;;;;;5007958;28;20052;-78
2022/05/27 02:32:08;;;;;;;0.45;0.45;;;;;;;;;;5014479;28;20517;-78
2022/05/27 02:37:29;;;;;;;0.22;0.22;;;;;;;;;;5013032;28;20533;-78
2022/05/27 02:39:55;;;;;;;0.20;0.20;;;;;;;;;;5013354;28;20036;-78
2022/05/27 02:42:29;;;;;;;0.65;0.63;;;;;;;;;;4996715;28;20108;-78
2022/05/27 02:45:01;;;;;;;0.45;0.40;;;;;;;;;;5013896;28;20079;-78
2022/05/27 02:47:52;;;;;;;0.50;0.40;;;;;;;;;;5012218;28;20025;-78
2022/05/27 02:50:37;;;;;;;1.65;0.85;;;;;;;;;;5010589;28;20113;-79
2022/05/27 02:53:08;;;;;;;0.40;0.40;;;;;;;;;;5013306;28;20542;-78
2022/05/27 02:55:57;;;;;;;0.40;0.40;;;;;;;;;;5014136;28;20044;-79
2022/05/27 02:58:22;;;;;;;1.33;0.75;;;;;;;;;;5008432;28;20050;-80
2022/05/27 03:00:48;;;;;;;0.80;0.70;;;;;;;;;;4996904;28;20040;-80
2022/05/27 03:03:13;;;;;;;3.30;2.10;;;;;;;;;;5012873;28;20049;-80
2022/05/27 03:06:11;;;;;;;0.10;0.10;;;;;;;;;;5013237;28;20068;-81
2022/05/27 03:09:24;;;;;;;0.03;0.03;;;;;;;;;;5013260;28;20044;-80
2022/05/27 03:12:15;;;;;;;0.55;0.55;;;;;;;;;;4993286;28;20123;-81
2022/05/27 03:14:46;;;;;;;0.40;0.40;;;;;;;;;;5001024;28;20034;-82
2022/05/27 03:17:32;;;;;;;0.55;0.55;;;;;;;;;;5014171;28;20052;-81
2022/05/27 03:20:36;;;;;;;0.15;0.15;;;;;;;;;;5013089;28;20033;-81
2022/05/27 03:23:14;;;;;;;0.20;0.20;;;;;;;;;;4990276;28;20451;-81
2022/05/27 03:25:44;;;;;;;0.60;0.60;;;;;;;;;;5012931;28;20037;-80
2022/05/27 03:28:18;;;;;;;0.50;0.20;;;;;;;;;;4996197;28;20084;-81
2022/05/27 03:31:09;;;;;;;0.85;0.55;;;;;;;;;;4997101;28;20026;-81
2022/05/27 03:33:36;;;;;;;0.32;0.32;;;;;;;;;;5012458;28;20041;-81
2022/05/27 03:36:22;;;;;;;0.32;0.30;;;;;;;;;;5029163;28;20128;-82
2022/05/27 03:39:06;;;;;;;0.30;0.30;;;;;;;;;;4995512;28;20040;-81
2022/05/27 03:41:36;;;;;;;0.00;0.00;;;;;;;;;;5016548;28;20036;-82
2022/05/27 03:44:02;;;;;;;0.20;0.20;;;;;;;;;;5000397;28;20021;-81
2022/05/27 03:46:32;;;;;;;1.08;0.32;;;;;;;;;;5010502;28;20178;-82
2022/05/27 03:48:58;;;;;;;0.05;0.05;;;;;;;;;;4999893;28;20125;-81
2022/05/27 03:51:29;;;;;;;0.60;0.32;;;;;;;;;;4999675;28;20116;-82
2022/05/27 03:54:03;;;;;;;0.43;0.43;;;;;;;;;;5014081;28;20128;-83
2022/05/27 03:56:32;;;;;;;0.30;0.30;;;;;;;;;;5000906;28;20025;-82
2022/05/27 03:58:57;;;;;;;0.82;0.38;;;;;;;;;;5000642;28;20018;-82
2022/05/27 04:01:29;;;;;;;0.50;0.50;;;;;;;;;;5016640;28;20434;-82
2022/05/27 04:03:58;;;;;;;0.45;0.45;;;;;;;;;;4999628;28;20435;-80
2022/05/27 04:06:27;;;;;;;0.28;0.28;;;;;;;;;;5032046;28;20026;-81
2022/05/27 04:08:53;;;;;;;1.27;0.50;;;;;;;;;;5015954;28;20029;-80
2022/05/27 04:11:21;;;;;;;0.73;0.50;;;;;;;;;;5016957;28;20489;-80
2022/05/27 04:13:49;;;;;;;1.13;0.75;;;;;;;;;;5031353;28;20034;-80
2022/05/27 04:16:14;;;;;;;0.30;0.30;;;;;;;;;;5015588;28;20378;-80
2022/05/27 04:18:40;;;;;;;0.28;0.25;;;;;;;;;;4997999;28;20041;-81
2022/05/27 04:21:05;;;;;;;0.63;0.55;;;;;;;;;;5016039;28;20037;-81
2022/05/27 04:23:33;;;;;;;0.65;0.65;;;;;;;;;;4999324;28;20025;-80
2022/05/27 04:25:58;;;;;;;0.68;0.65;;;;;;;;;;5016316;28;20026;-80
2022/05/27 04:28:24;;;;;;;0.10;0.10;;;;;;;;;;5016067;28;20176;-81
2022/05/27 04:30:49;;;;;;;0.00;0.00;;;;;;;;;;4999702;28;20084;-79
2022/05/27 04:33:15;;;;;;;0.00;0.00;;;;;;;;;;5015102;28;20580;-80
2022/05/27 04:35:43;;;;;;;0.52;0.28;;;;;;;;;;4998829;28;20026;-80
2022/05/27 04:38:11;;;;;;;0.15;0.10;;;;;;;;;;5015988;28;20026;-78
2022/05/27 04:40:36;;;;;;;0.30;0.22;;;;;;;;;;5015768;28;20026;-79
2022/05/27 04:43:05;;;;;;;0.57;0.57;;;;;;;;;;5015080;28;20049;-80
2022/05/27 04:45:31;;;;;;;0.52;0.52;;;;;;;;;;4999652;28;20014;-80
2022/05/27 04:47:57;;;;;;;5.57;0.80;;;;;;;;;;4999389;28;20128;-80
2022/05/27 04:50:23;;;;;;;0.40;0.40;;;;;;;;;;4992802;28;20498;-79
2022/05/27 04:52:48;;;;;;;0.10;0.10;;;;;;;;;;4998188;28;20021;-79
2022/05/27 04:55:15;;;;;;;0.95;0.52;;;;;;;;;;5014214;28;20509;-79
2022/05/27 04:57:53;;;;;;;0.38;0.38;;;;;;;;;;5017403;28;20037;-80
2022/05/27 05:00:27;;;;;;;13.73;0.80;;;;;;;;;;5017407;28;20346;-78
2022/05/27 05:02:54;;;;;;;0.55;0.47;;;;;;;;;;5022249;28;20099;-78
2022/05/27 05:05:22;;;;;;;1.10;0.45;;;;;;;;;;5014694;28;20121;-79
2022/05/27 05:07:55;;;;;;;0.13;0.13;;;;;;;;;;5017086;28;20063;-79
2022/05/27 05:10:22;;;;;;;0.93;0.73;;;;;;;;;;5027061;28;20103;-78
2022/05/27 05:12:49;;;;;;;0.28;0.28;;;;;;;;;;5033058;28;20374;-79
2022/05/27 05:15:20;;;;;;;0.20;0.20;;;;;;;;;;5033615;28;20461;-77
2022/05/27 05:17:46;;;;;;;0.30;0.30;;;;;;;;;;5017206;28;20038;-77
2022/05/27 05:20:14;;;;;;;0.10;0.10;;;;;;;;;;5032532;28;20033;-77
2022/05/27 05:22:40;;;;;;;0.00;0.00;;;;;;;;;;5036607;28;20037;-78
2022/05/27 05:25:11;;;;;;;2.13;1.10;;;;;;;;;;5033065;28;20112;-78
2022/05/27 05:27:38;;;;;;;0.75;0.63;;;;;;;;;;5015124;28;20030;-79
2022/05/27 05:30:07;;;;;;;0.43;0.40;;;;;;;;;;5014769;28;20030;-77
2022/05/27 05:32:34;;;;;;;0.82;0.55;;;;;;;;;;5014459;28;20478;-78
2022/05/27 05:35:02;;;;;;;1.30;1.20;;;;;;;;;;5014187;28;20109;-78
2022/05/27 05:37:27;;;;;;;2.33;0.88;;;;;;;;;;5014663;28;20049;-77
2022/05/27 05:39:57;;;;;;;0.50;0.50;;;;;;;;;;5015463;28;20057;-78
2022/05/27 05:42:23;;;;;;;0.40;0.40;;;;;;;;;;5014508;28;20340;-77
2022/05/27 05:44:51;;;;;;;0.70;0.60;;;;;;;;;;5014052;28;20018;-78
2022/05/27 05:47:16;;;;;;;0.03;0.03;;;;;;;;;;5015533;28;20029;-78
2022/05/27 05:49:42;;;;;;;1.00;0.70;;;;;;;;;;5015321;28;20038;-78
2022/05/27 05:52:10;;;;;;;0.38;0.30;;;;;;;;;;5014733;28;20455;-78
2022/05/27 05:54:37;;;;;;;3.80;0.57;;;;;;;;;;5026111;28;20021;-77
2022/05/27 05:57:03;;;;;;;1.15;0.57;;;;;;;;;;5015277;28;20606;-79
2022/05/27 05:59:31;;;;;;;0.50;0.50;;;;;;;;;;5014630;28;20439;-78
2022/05/27 06:01:57;;;;;;;0.17;0.17;;;;;;;;;;5014126;28;20026;-78
2022/05/27 06:04:25;;;;;;;1.83;1.70;;;;;;;;;;5013915;28;20037;-78
2022/05/27 06:06:53;;;;;;;0.32;0.32;;;;;;;;;;5026980;28;20038;-78
2022/05/27 06:09:25;;;;;;;0.38;0.38;;;;;;;;;;5012700;28;20037;-78
2022/05/27 06:11:51;;;;;;;1.33;0.60;;;;;;;;;;5014556;28;20052;-78
2022/05/27 06:14:17;;;;;;;0.20;0.17;;;;;;;;;;4997326;28;20038;-78
2022/05/27 06:16:42;;;;;;;1.63;0.80;;;;;;;;;;5014237;28;20371;-79
2022/05/27 06:19:10;;;;;;;0.57;0.40;;;;;;;;;;5013163;28;20034;-78
2022/05/27 06:21:35;;;;;;;0.13;0.13;;;;;;;;;;5014582;28;20026;-79
2022/05/27 06:24:03;;;;;;;0.63;0.20;;;;;;;;;;5013811;28;20037;-78
2022/05/27 06:26:31;;;;;;;0.22;0.22;;;;;;;;;;4996365;28;20025;-78
2022/05/27 06:34:27;;;;;;;1.73;0.63;;;;;;;;;;5010880;28;20125;-79
2022/05/27 06:36:58;;;;;;;0.95;0.75;;;;;;;;;;5028047;28;20120;-78
2022/05/27 06:39:25;;;;;;;1.30;0.40;;;;;;;;;;5012891;28;20036;-78
2022/05/27 06:41:50;;;;;;;0.82;0.80;;;;;;;;;;5014069;28;20057;-79
2022/05/27 06:44:16;;;;;;;2.03;1.40;;;;;;;;;;5012184;28;20041;-78
2022/05/27 06:46:45;;;;;;;0.20;0.20;;;;;;;;;;5013875;28;20034;-78
2022/05/27 06:49:15;;;;;;;0.13;0.13;;;;;;;;;;5013539;28;20450;-79
2022/05/27 06:51:41;;;;;;;9.63;1.13;;;;;;;;;;4997534;28;20088;-78
2022/05/27 06:54:07;;;;;;;0.93;0.52;;;;;;;;;;5013689;28;20057;-78
2022/05/27 06:56:37;;;;;;;1.65;1.15;;;;;;;;;;5012914;28;20151;-77
2022/05/27 06:59:03;;;;;;;0.28;0.28;;;;;;;;;;5011825;28;20403;-79
2022/05/27 07:01:28;;;;;;;0.43;0.43;;;;;;;;;;5013148;28;20025;-76
2022/05/27 07:03:54;;;;;;;0.43;0.43;;;;;;;;;;5025449;28;21417;-78
2022/05/27 07:06:19;;;;;;;6.07;1.83;;;;;;;;;;5010996;28;20033;-78
2022/05/27 07:08:44;;;;;;;1.00;0.90;;;;;;;;;;5024809;28;20030;-78
2022/05/27 07:11:10;;;;;;;0.40;0.40;;;;;;;;;;5013159;28;20022;-77
2022/05/27 07:13:36;;;;;;;0.52;0.52;;;;;;;;;;5006399;28;20068;-77
2022/05/27 07:16:01;;;;;;;0.30;0.30;;;;;;;;;;4999372;28;20044;-77
2022/05/27 07:18:27;;;;;;;2.72;1.13;;;;;;;;;;5015073;28;20085;-77
2022/05/27 07:20:59;;;;;;;0.65;0.57;;;;;;;;;;5016902;28;20038;-77
2022/05/27 07:23:24;;;;;;;2.20;0.98;;;;;;;;;;5017333;28;20030;-78
2022/05/27 07:25:52;;;;;;;0.45;0.45;;;;;;;;;;5016933;28;20022;-78
2022/05/27 07:28:17;;;;;;;1.08;0.30;;;;;;;;;;5017771;28;20105;-78
2022/05/27 07:30:42;;;;;;;0.63;0.63;;;;;;;;;;5015703;28;20430;-77
2022/05/27 07:33:08;;;;;;;0.80;0.50;;;;;;;;;;5016614;28;20057;-77
2022/05/27 07:35:34;;;;;;;1.65;0.65;;;;;;;;;;5015899;28;20029;-76
2022/05/27 07:37:59;;;;;;;0.77;0.77;;;;;;;;;;5014925;28;20116;-77
2022/05/27 07:40:24;;;;;;;0.93;0.85;;;;;;;;;;5017814;28;20116;-76
2022/05/27 07:42:50;;;;;;;0.55;0.20;;;;;;;;;;5017550;28;20105;-77
2022/05/27 07:45:17;;;;;;;9.43;1.05;;;;;;;;;;5017610;28;20101;-77
2022/05/27 07:47:42;;;;;;;1.00;0.80;;;;;;;;;;5016839;28;20029;-77
2022/05/27 07:50:13;;;;;;;0.10;0.10;;;;;;;;;;5016680;28;20088;-77
2022/05/27 07:52:39;;;;;;;3.22;0.88;;;;;;;;;;5015757;28;20451;-77
2022/05/27 07:55:05;;;;;;;1.08;0.82;;;;;;;;;;5016396;28;20026;-78
2022/05/27 07:57:33;;;;;;;2.05;0.80;;;;;;;;;;5017339;28;20451;-78
2022/05/27 08:00:07;;;;;;;0.40;0.40;;;;;;;;;;5017272;28;20458;-78
2022/05/27 08:02:35;;;;;;;0.70;0.70;;;;;;;;;;5017310;28;20057;-79
2022/05/27 08:05:01;;;;;;;1.90;1.05;;;;;;;;;;5016322;28;20026;-79
2022/05/27 08:07:26;;;;;;;3.72;1.73;;;;;;;;;;5016738;28;20036;-79
2022/05/27 08:09:52;;;;;;;0.80;0.77;;;;;;;;;;5032738;28;20030;-77
2022/05/27 08:12:18;;;;;;;5.20;1.35;;;;;;;;;;5016018;28;20030;-78
2022/05/27 08:14:43;;;;;;;1.48;1.00;;;;;;;;;;5015623;28;20108;-78
2022/05/27 08:17:11;;;;;;;1.48;1.15;;;;;;;;;;5014059;28;20034;-78
2022/05/27 08:19:36;;;;;;;5.72;2.38;;;;;;;;;;5015262;28;20048;-79
2022/05/27 08:22:02;;;;;;;1.17;0.82;;;;;;;;;;5012625;28;20049;-78
2022/05/27 08:24:30;;;;;;;1.02;0.50;;;;;;;;;;5016924;28;20335;-78
2022/05/27 08:26:58;;;;;;;4.40;0.82;;;;;;;;;;5015710;28;20029;-78
2022/05/27 08:29:27;;;;;;;0.57;0.45;;;;;;;;;;5016788;28;20065;-78
2022/05/27 08:31:52;;;;;;;0.10;0.10;;;;;;;;;;5016843;28;20050;-78
2022/05/27 08:39:46;;;;;;;0.70;0.70;;;;;;;;;;5008254;28;20029;-78
2022/05/27 08:42:42;;;;;;;0.90;0.55;;;;;;;;;;5005112;28;20097;-78
2022/05/27 08:45:22;;;;;;;1.52;0.63;;;;;;;;;;5005136;28;20397;-78
2022/05/27 08:47:51;;;;;;;1.23;0.70;;;;;;;;;;5004888;28;20025;-78
2022/05/27 08:50:22;;;;;;;0.50;0.50;;;;;;;;;;5010693;28;20021;-79
2022/05/27 08:52:53;;;;;;;1.58;1.45;;;;;;;;;;5013504;28;20121;-78
2022/05/27 09:01:22;;;;;;;0.68;0.68;;;;;;;;;;5012126;28;20110;-77
2022/05/27 09:04:01;;;;;;;0.80;0.35;;;;;;;;;;5006383;28;20116;-77
2022/05/27 09:06:35;;;;;;;2.33;1.00;;;;;;;;;;5012015;28;20046;-77
2022/05/27 09:09:06;;;;;;;0.45;0.40;;;;;;;;;;5009158;28;20046;-76
2022/05/27 09:11:40;;;;;;;1.10;0.65;;;;;;;;;;5011299;28;20575;-77
2022/05/27 09:14:18;;;;;;;5.80;0.88;;;;;;;;;;5009845;28;20042;-77
2022/05/27 09:16:56;;;;;;;0.22;0.22;;;;;;;;;;5007090;28;20022;-77
2022/05/27 09:19:26;;;;;;;2.78;0.68;;;;;;;;;;5035845;28;20036;-77
2022/05/27 09:21:57;;;;;;;4.05;1.17;;;;;;;;;;5008265;28;20026;-76
2022/05/27 09:24:23;;;;;;;0.55;0.47;;;;;;;;;;5007481;28;20026;-77
2022/05/27 09:26:58;;;;;;;0.10;0.10;;;;;;;;;;5008567;28;20320;-77
2022/05/27 09:29:51;;;;;;;1.35;0.32;;;;;;;;;;5011843;28;20200;-76
2022/05/27 09:32:25;;;;;;;0.70;0.47;;;;;;;;;;5009646;28;20046;-76
2022/05/27 09:34:50;;;;;;;0.60;0.60;;;;;;;;;;5005077;28;20022;-78
2022/05/27 09:37:38;;;;;;;0.25;0.20;;;;;;;;;;5007327;28;20422;-77
2022/05/27 09:40:23;;;;;;;0.40;0.35;;;;;;;;;;5009712;28;20025;-78
2022/05/27 09:43:00;;;;;;;10.82;1.52;;;;;;;;;;5004951;28;20097;-79
2022/05/27 09:45:29;;;;;;;0.32;0.32;;;;;;;;;;5007778;28;20882;-77
2022/05/27 09:48:06;;;;;;;1.20;0.88;;;;;;;;;;5007266;28;20026;-78
2022/05/27 09:50:49;;;;;;;0.75;0.28;;;;;;;;;;5010252;28;20030;-78
2022/05/27 09:53:20;;;;;;;12.88;1.58;;;;;;;;;;5014474;28;20037;-77
2022/05/27 09:55:54;;;;;;;0.40;0.37;;;;;;;;;;5006595;28;20462;-78
2022/05/27 09:58:25;;;;;;;0.30;0.30;;;;;;;;;;5010203;28;20446;-76
2022/05/27 10:00:51;;;;;;;0.37;0.37;;;;;;;;;;5010771;28;20423;-77
2022/05/27 10:03:25;;;;;;;1.15;0.50;;;;;;;;;;5009988;28;20298;-75
2022/05/27 10:06:00;;;;;;;1.02;0.80;;;;;;;;;;5009095;28;20443;-76
2022/05/27 10:08:53;;;;;;;0.10;0.10;;;;;;;;;;4993105;28;20436;-77
2022/05/27 10:11:29;;;;;;;0.45;0.40;;;;;;;;;;5008313;28;20176;-77
2022/05/27 10:14:06;;;;;;;0.10;0.10;;;;;;;;;;5024063;28;20026;-78
2022/05/27 10:16:33;;;;;;;0.93;0.50;;;;;;;;;;5007760;28;20049;-78
2022/05/27 10:19:10;;;;;;;0.63;0.50;;;;;;;;;;5010092;28;20033;-78
2022/05/27 10:22:08;;;;;;;6.65;1.30;;;;;;;;;;4999570;28;20444;-77
2022/05/27 10:24:37;;;;;;;0.28;0.28;;;;;;;;;;4993017;28;20058;-76
2022/05/27 10:27:04;;;;;;;0.80;0.52;;;;;;;;;;5010617;28;20030;-76
2022/05/27 10:29:31;;;;;;;0.38;0.32;;;;;;;;;;5014938;28;20080;-77
2022/05/27 10:32:10;;;;;;;0.32;0.28;;;;;;;;;;5005563;28;20014;-76
2022/05/27 10:34:45;;;;;;;1.50;0.80;;;;;;;;;;5003396;28;20029;-77
2022/05/27 10:37:28;;;;;;;0.38;0.35;;;;;;;;;;5006388;28;20022;-76
2022/05/27 10:40:08;;;;;;;1.67;0.60;;;;;;;;;;5011058;28;20034;-76
2022/05/27 10:42:58;;;;;;;0.32;0.32;;;;;;;;;;5009330;28;20041;-79
2022/05/27 10:45:33;;;;;;;0.68;0.68;;;;;;;;;;5010838;28;20029;-78
2022/05/27 10:48:03;;;;;;;0.65;0.63;;;;;;;;;;5009967;28;20060;-78
2022/05/27 10:51:02;;;;;;;0.35;0.35;;;;;;;;;;5013338;28;20459;-78
2022/05/27 10:53:50;;;;;;;1.45;0.70;;;;;;;;;;5009776;28;20036;-77
2022/05/27 10:56:20;;;;;;;0.15;0.10;;;;;;;;;;5024525;28;20041;-76
2022/05/27 11:02:19;;;;;;;0.68;0.22;;;;;;;;;;5004967;28;20060;-77
2022/05/27 11:04:47;;;;;;;3.30;0.50;;;;;;;;;;5003617;28;20022;-78
2022/05/27 11:07:38;;;;;;;2.17;0.30;;;;;;;;;;5005430;28;20097;-78
2022/05/27 11:10:33;;;;;;;8.18;0.95;;;;;;;;;;5010676;28;20032;-78
2022/05/27 11:16:17;;;;;;;0.30;0.30;;;;;;;;;;5012308;28;20484;-78
2022/05/27 11:18:51;;;;;;;0.60;0.60;;;;;;;;;;5011210;28;20111;-79
2022/05/27 11:21:29;;;;;;;0.68;0.30;;;;;;;;;;5012503;28;20040;-79
2022/05/27 11:24:03;;;;;;;0.70;0.70;;;;;;;;;;5011608;28;20022;-79
2022/05/27 11:26:47;;;;;;;1.23;0.60;;;;;;;;;;5026344;28;20076;-79
2022/05/27 11:29:28;;;;;;;0.20;0.20;;;;;;;;;;5012619;28;20140;-77
2022/05/27 11:32:02;;;;;;;0.15;0.15;;;;;;;;;;5011366;28;20065;-81
2022/05/27 11:34:32;;;;;;;1.98;0.25;;;;;;;;;;4996292;28;20026;-79
2022/05/27 11:37:29;;;;;;;2.83;0.47;;;;;;;;;;4996427;28;20654;-80
2022/05/27 11:40:28;;;;;;;0.50;0.45;;;;;;;;;;5011815;28;20026;-78
2022/05/27 11:43:31;;;;;;;2.72;0.77;;;;;;;;;;4998643;28;20044;-79
2022/05/27 11:45:56;;;;;;;0.98;0.28;;;;;;;;;;5012920;28;20350;-79
2022/05/27 11:48:46;;;;;;;0.20;0.20;;;;;;;;;;5013241;28;20033;-80
2022/05/27 11:51:28;;;;;;;0.88;0.38;;;;;;;;;;5007813;28;20426;-81
2022/05/27 11:54:11;;;;;;;0.13;0.13;;;;;;;;;;4993607;28;20045;-80
2022/05/27 11:57:15;;;;;;;12.07;0.65;;;;;;;;;;5012920;28;20029;-79
2022/05/27 11:59:48;;;;;;;0.65;0.43;;;;;;;;;;5010069;28;20065;-79
2022/05/27 12:02:29;;;;;;;0.50;0.50;;;;;;;;;;5014623;28;20453;-79
2022/05/27 12:05:00;;;;;;;2.22;1.13;;;;;;;;;;5011893;28;20036;-79
2022/05/27 12:07:48;;;;;;;1.55;0.35;;;;;;;;;;5015042;28;20370;-78
2022/05/27 12:10:26;;;;;;;1.58;0.77;;;;;;;;;;5016152;28;20037;-78
2022/05/27 12:13:33;;;;;;;1.20;0.65;;;;;;;;;;5012682;28;20030;-80
2022/05/27 12:16:15;;;;;;;3.58;1.55;;;;;;;;;;5014884;28;20467;-79
2022/05/27 12:18:46;;;;;;;1.63;1.20;;;;;;;;;;5016105;28;20098;-80
2022/05/27 12:21:24;;;;;;;3.85;0.75;;;;;;;;;;5016669;28;20037;-79
2022/05/27 12:24:05;;;;;;;0.38;0.38;;;;;;;;;;5016385;28;20032;-79
2022/05/27 12:26:33;;;;;;;0.83;0.67;;;;;;;;;;5015837;28;20033;-81
2022/05/27 12:29:02;;;;;;;0.93;0.50;;;;;;;;;;5014228;28;20017;-80
2022/05/27 12:31:29;;;;;;;0.95;0.25;;;;;;;;;;4997926;28;20036;-80
2022/05/27 12:33:54;;;;;;;2.10;0.60;;;;;;;;;;5010747;28;20501;-80
2022/05/27 12:36:31;;;;;;;0.10;0.10;;;;;;;;;;5011206;28;20038;-78
2022/05/27 12:38:57;;;;;;;5.15;1.17;;;;;;;;;;4997317;28;20045;-79
2022/05/27 12:41:38;;;;;;;0.70;0.30;;;;;;;;;;5014534;28;20041;-79
2022/05/27 12:44:31;;;;;;;0.28;0.28;;;;;;;;;;4993897;28;20054;-80
2022/05/27 12:47:05;;;;;;;0.95;0.73;;;;;;;;;;4973781;28;20224;-79
2022/05/27 12:49:37;;;;;;;0.65;0.40;;;;;;;;;;4990313;28;20942;-80
2022/05/27 12:52:06;;;;;;;;;;;;;;;;;;4994614;28;20058;-80
2022/05/27 12:54:48;;;;;;;0.95;0.88;;;;;;;;;;4994058;28;19913;-80
2022/05/27 13:03:33;;;;;;;0.10;0.10;;;;;;;;;;4986819;28;20482;-80
2022/05/27 13:06:12;;;;;;;0.25;0.20;;;;;;;;;;4990505;28;20113;-79
2022/05/27 13:08:49;;;;;;;0.10;0.10;;;;;;;;;;4992577;28;20034;-78
2022/05/27 13:11:23;;;;;;;0.03;0.03;;;;;;;;;;4989401;28;20153;-80
2022/05/27 13:14:06;;;;;;;0.45;0.45;;;;;;;;;;4992297;28;20092;-78
2022/05/27 13:16:50;;;;;;;;;;;;;;;;;;5014800;28;20475;-77
2022/05/27 13:19:21;;;;;;;1.20;0.52;;;;;;;;;;5030755;28;19920;-77
2022/05/27 13:22:30;;;;;;;0.17;0.17;;;;;;;;;;5014322;28;20032;-77
2022/05/27 13:25:24;;;;;;;2.13;0.50;;;;;;;;;;5011222;28;20264;-77
2022/05/27 13:27:57;;;;;;;0.15;0.15;;;;;;;;;;5008168;28;20034;-76
2022/05/27 13:30:45;;;;;;;0.20;0.20;;;;;;;;;;5011977;28;20426;-77
2022/05/27 13:33:13;;;;;;;0.22;0.13;;;;;;;;;;5012352;28;20041;-77
2022/05/27 13:35:44;;;;;;;0.73;0.40;;;;;;;;;;4997978;28;20037;-76
2022/05/27 13:38:15;;;;;;;4.93;0.38;;;;;;;;;;5011750;28;20037;-77
2022/05/27 13:40:41;;;;;;;0.65;0.50;;;;;;;;;;5030177;28;20025;-77
2022/05/27 13:43:13;;;;;;;4.28;0.57;;;;;;;;;;5028376;28;20359;-75
2022/05/27 13:45:47;;;;;;;;;;;;;;;;;;5014959;28;20026;-76
2022/05/27 13:48:34;;;;;;;1.65;0.55;;;;;;;;;;5011900;28;19917;-78
2022/05/27 13:51:07;;;;;;;1.95;0.45;;;;;;;;;;5006388;28;20054;-76
2022/05/27 13:53:35;;;;;;;;;;;;;;;;;;5012778;28;20065;-77
2022/05/27 13:56:06;;;;;;;1.25;0.98;;;;;;;;;;5018265;28;20004;-76
2022/05/27 13:58:37;;;;;;;1.20;0.47;;;;;;;;;;5011899;28;20118;-78
2022/05/27 14:01:06;;;;;;;3.28;0.73;;;;;;;;;;5025083;28;20030;-78
2022/05/27 14:03:42;;;;;;;14.75;0.93;;;;;;;;;;5005808;28;20037;-77
2022/05/27 14:06:11;;;;;;;0.95;0.85;;;;;;;;;;5002190;28;20022;-77
2022/05/27 14:08:40;;;;;;;0.25;0.25;;;;;;;;;;5009944;28;20374;-78
2022/05/27 14:11:36;;;;;;;0.60;0.20;;;;;;;;;;5013029;28;20026;-79
2022/05/27 14:14:07;;;;;;;7.32;0.73;;;;;;;;;;5025361;28;20041;-76
2022/05/27 14:16:34;;;;;;;0.93;0.20;;;;;;;;;;5011358;28;20098;-77
2022/05/27 14:19:16;;;;;;;0.32;0.32;;;;;;;;;;5012683;28;20036;-76
2022/05/27 14:24:31;;;;;;;0.10;0.10;;;;;;;;;;5002988;28;20037;-76
2022/05/27 14:26:57;;;;;;;0.22;0.20;;;;;;;;;;5004565;28;20103;-77
2022/05/27 14:29:23;;;;;;;0.60;0.45;;;;;;;;;;5005878;28;20069;-76
2022/05/27 14:31:49;;;;;;;0.63;0.40;;;;;;;;;;5026739;28;20045;-77
2022/05/27 14:34:18;;;;;;;0.47;0.32;;;;;;;;;;4990603;28;20022;-76
2022/05/27 14:37:08;;;;;;;0.15;0.15;;;;;;;;;;5016189;28;20379;-77
2022/05/27 14:39:33;;;;;;;0.15;0.15;;;;;;;;;;4986955;28;20138;-77
2022/05/27 14:41:59;;;;;;;0.30;0.28;;;;;;;;;;5002796;28;20422;-77
2022/05/27 14:44:42;;;;;;;4.78;0.68;;;;;;;;;;5004574;28;20022;-77
2022/05/27 14:47:27;;;;;;;1.83;0.57;;;;;;;;;;5005404;28;20053;-76
2022/05/27 14:49:56;;;;;;;2.92;0.50;;;;;;;;;;5007201;28;20119;-78
2022/05/27 14:52:35;;;;;;;0.43;0.20;;;;;;;;;;5006222;28;20041;-76
2022/05/27 14:55:15;;;;;;;0.80;0.57;;;;;;;;;;5013158;28;20037;-76
2022/05/27 14:57:50;;;;;;;1.30;0.47;;;;;;;;;;5012282;28;20109;-76
2022/05/27 15:00:22;;;;;;;0.63;0.60;;;;;;;;;;5011168;28;20064;-76
2022/05/27 15:02:51;;;;;;;0.30;0.30;;;;;;;;;;5005774;28;20040;-76
2022/05/27 15:05:22;;;;;;;0.55;0.55;;;;;;;;;;5009623;28;20036;-77
2022/05/27 15:07:59;;;;;;;0.00;0.00;;;;;;;;;;5013644;28;20041;-76
2022/05/27 15:10:32;;;;;;;2.60;1.30;;;;;;;;;;5013633;28;20029;-77
2022/05/27 15:12:58;;;;;;;1.45;0.88;;;;;;;;;;5011107;28;20431;-77
2022/05/27 15:15:41;;;;;;;0.30;0.30;;;;;;;;;;5034108;28;20045;-78
2022/05/27 15:18:13;;;;;;;0.08;0.08;;;;;;;;;;5033023;28;20051;-78
2022/05/27 15:20:46;;;;;;;0.03;0.03;;;;;;;;;;5017978;28;20036;-78
2022/05/27 15:23:14;;;;;;;0.20;0.10;;;;;;;;;;5027776;28;20358;-78
2022/05/27 15:25:46;;;;;;;0.35;0.35;;;;;;;;;;5014472;28;20446;-79
2022/05/27 15:33:48;;;;;;;0.35;0.35;;;;;;;;;;5034476;28;20082;-79
2022/05/27 15:36:14;;;;;;;0.15;0.10;;;;;;;;;;5034968;28;20151;-78
2022/05/27 15:38:49;;;;;;;0.17;0.17;;;;;;;;;;5022029;28;20057;-78
2022/05/27 15:41:20;;;;;;;0.77;0.28;;;;;;;;;;5021462;28;20025;-78
2022/05/27 15:43:48;;;;;;;0.50;0.40;;;;;;;;;;5032062;28;20044;-78
2022/05/27 15:46:18;;;;;;;0.10;0.10;;;;;;;;;;5055495;28;20032;-78
2022/05/27 15:48:43;;;;;;;0.25;0.25;;;;;;;;;;5038041;28;20033;-77
2022/05/27 15:51:10;;;;;;;1.73;0.77;;;;;;;;;;5035491;28;20032;-78
2022/05/27 15:53:35;;;;;;;0.00;0.00;;;;;;;;;;5018901;28;20223;-78
2022/05/27 15:56:02;;;;;;;0.30;0.30;;;;;;;;;;5013749;28;20116;-78
2022/05/27 15:58:28;;;;;;;0.57;0.38;;;;;;;;;;5013990;28;20412;-77
2022/05/27 16:00:53;;;;;;;4.00;0.85;;;;;;;;;;5014873;28;20030;-79
2022/05/27 16:03:22;;;;;;;0.98;0.73;;;;;;;;;;5014594;28;20352;-79